Time;durP1;ratioP1;P1;durP2;ratioP2;P2;SDS_P1;SDS_P2;PMS_P1;PMS_P2;Temp;Humidity;BMP_temperature;BMP_pressure;BME280_temperature;BME280_humidity;BME280_pressure;Samples;Min_cycle;Max_cycle;Signal;HPM_P1;HPM_P2
2021/05/30 00:02:22;;;;;;;3.90;3.53;;;;;;;13.48;67.39;96081.69;4975230;28;20018;-52
2021/05/30 00:04:48;;;;;;;4.07;3.78;;;;;;;13.41;67.57;96078.78;4970408;28;20548;-50
2021/05/30 00:07:14;;;;;;;4.03;3.70;;;;;;;13.36;67.67;96073.13;4977820;28;20038;-54
2021/05/30 00:09:39;;;;;;;5.25;3.45;;;;;;;13.34;68.11;96070.59;4973384;28;20062;-52
2021/05/30 00:12:09;;;;;;;3.95;3.67;;;;;;;13.29;68.59;96070.22;4976328;28;20396;-50
2021/05/30 00:14:35;;;;;;;5.95;3.58;;;;;;;13.29;68.05;96072.88;4974700;28;20445;-51
2021/05/30 00:17:01;;;;;;;4.20;3.80;;;;;;;13.28;67.95;96072.06;4977152;28;20061;-53
2021/05/30 00:19:27;;;;;;;3.83;3.53;;;;;;;13.23;68.96;96068.19;4974616;28;20407;-53
2021/05/30 00:21:53;;;;;;;4.85;3.70;;;;;;;13.21;68.69;96070.16;4972474;28;20077;-50
2021/05/30 00:24:19;;;;;;;4.05;3.63;;;;;;;13.16;68.88;96067.94;4978135;28;20026;-50
2021/05/30 00:26:46;;;;;;;3.85;3.20;;;;;;;13.07;68.98;96069.66;4975080;28;21378;-52
2021/05/30 00:29:11;;;;;;;3.50;3.30;;;;;;;12.98;68.88;96062.63;4974301;28;20034;-53
2021/05/30 00:31:37;;;;;;;3.70;3.40;;;;;;;12.92;69.23;96066.69;4972077;28;20034;-53
2021/05/30 00:34:03;;;;;;;7.07;4.05;;;;;;;12.87;69.59;96061.84;4973563;28;20037;-50
2021/05/30 00:36:28;;;;;;;4.00;3.60;;;;;;;12.86;69.77;96067.28;4976560;28;20034;-51
2021/05/30 00:38:54;;;;;;;4.70;3.25;;;;;;;12.82;69.79;96071.19;4977423;28;20069;-52
2021/05/30 00:41:19;;;;;;;3.67;3.38;;;;;;;12.77;69.88;96069.00;4974921;28;20066;-52
2021/05/30 00:43:53;;;;;;;3.70;3.40;;;;;;;12.73;71.17;96068.44;4976827;28;20031;-50
2021/05/30 00:46:19;;;;;;;5.70;3.80;;;;;;;12.64;70.75;96068.50;4958019;28;20089;-51
2021/05/30 00:48:45;;;;;;;6.70;3.58;;;;;;;12.59;70.87;96067.13;4973507;28;20517;-51
2021/05/30 00:51:11;;;;;;;4.63;3.75;;;;;;;12.52;71.93;96071.34;4974769;28;20027;-50
2021/05/30 00:53:38;;;;;;;4.15;3.85;;;;;;;12.44;71.75;96069.41;4977235;28;20034;-50
2021/05/30 00:56:10;;;;;;;4.32;3.92;;;;;;;12.42;71.53;96070.53;4976062;28;20026;-52
2021/05/30 00:58:37;;;;;;;6.03;3.75;;;;;;;12.42;71.89;96066.09;4971757;28;20037;-50
2021/05/30 01:01:03;;;;;;;6.13;3.95;;;;;;;12.45;71.60;96064.94;4971941;28;20026;-50
2021/05/30 01:03:29;;;;;;;4.32;3.95;;;;;;;12.43;71.93;96064.25;4974716;28;20027;-51
2021/05/30 01:05:55;;;;;;;4.22;3.83;;;;;;;12.39;72.44;96062.88;4975840;28;20037;-52
2021/05/30 01:08:26;;;;;;;5.20;4.00;;;;;;;12.36;72.43;96065.81;4976146;28;20041;-51
2021/05/30 01:10:57;;;;;;;5.07;3.80;;;;;;;12.29;72.81;96066.41;4974417;28;20031;-51
2021/05/30 01:13:24;;;;;;;4.15;3.85;;;;;;;12.24;72.80;96062.53;4973330;28;20169;-53
2021/05/30 01:15:50;;;;;;;4.03;3.72;;;;;;;12.18;73.02;96061.28;4973669;28;20034;-50
2021/05/30 01:18:24;;;;;;;4.38;3.80;;;;;;;12.15;73.16;96065.03;4975912;28;20133;-50
2021/05/30 01:20:52;;;;;;;3.67;3.47;;;;;;;12.12;72.67;96065.31;4971734;28;20039;-49
2021/05/30 01:23:18;;;;;;;4.03;3.80;;;;;;;12.06;72.82;96065.06;4973335;28;20086;-49
2021/05/30 01:25:46;;;;;;;5.22;3.90;;;;;;;12.10;72.70;96059.34;4976200;28;20041;-51
2021/05/30 01:28:13;;;;;;;3.60;3.40;;;;;;;12.10;72.33;96062.00;4974758;28;20088;-51
2021/05/30 01:30:39;;;;;;;4.22;3.83;;;;;;;12.03;73.09;96063.53;4972328;28;20050;-50
2021/05/30 01:33:05;;;;;;;4.47;3.60;;;;;;;11.95;73.17;96079.22;4975823;28;20030;-52
2021/05/30 01:35:32;;;;;;;4.25;3.95;;;;;;;11.86;73.75;96059.78;4974229;28;20027;-52
2021/05/30 01:37:58;;;;;;;6.40;4.05;;;;;;;11.84;73.69;96061.75;4973515;28;20019;-49
2021/05/30 01:40:24;;;;;;;4.25;3.85;;;;;;;11.80;73.32;96069.09;4975348;28;21065;-49
2021/05/30 01:42:52;;;;;;;7.65;4.10;;;;;;;11.75;73.90;96066.88;4973421;28;20035;-50
2021/05/30 01:45:18;;;;;;;4.13;3.50;;;;;;;11.73;73.74;96068.00;4973444;28;20033;-50
2021/05/30 01:47:45;;;;;;;4.13;3.70;;;;;;;11.68;73.72;96067.56;4971785;28;20038;-51
2021/05/30 01:50:14;;;;;;;3.13;2.92;;;;;;;11.61;73.44;96075.22;4973656;28;20022;-49
2021/05/30 01:52:40;;;;;;;3.78;3.47;;;;;;;11.61;73.02;96073.41;4974690;28;20053;-52
2021/05/30 01:55:09;;;;;;;3.70;3.40;;;;;;;11.58;73.51;96078.13;4972130;28;20118;-49
2021/05/30 01:57:44;;;;;;;4.15;3.53;;;;;;;11.59;72.90;96082.41;4974357;28;20043;-49
2021/05/30 02:00:10;;;;;;;;;;;;;;;11.63;72.92;96081.19;4969427;28;20055;-50
2021/05/30 02:02:36;;;;;;;3.60;3.30;;;;;;;11.60;72.67;96076.16;4975590;28;19964;-49
2021/05/30 02:05:02;;;;;;;7.18;3.42;;;;;;;11.58;73.06;96080.75;4976128;28;20081;-49
2021/05/30 02:07:28;;;;;;;4.43;3.58;;;;;;;11.46;73.69;96073.00;4970128;28;20023;-51
2021/05/30 02:09:54;;;;;;;4.05;3.65;;;;;;;11.38;73.98;96080.75;4976736;28;20033;-49
2021/05/30 02:12:22;;;;;;;4.10;3.80;;;;;;;11.33;74.19;96077.69;4956039;28;20048;-50
2021/05/30 02:14:47;;;;;;;3.22;3.10;;;;;;;11.29;74.14;96076.28;4974714;28;20035;-50
2021/05/30 02:17:13;;;;;;;3.63;3.33;;;;;;;11.30;73.92;96076.19;4974078;28;20023;-51
2021/05/30 02:19:38;;;;;;;3.90;3.60;;;;;;;11.28;73.48;96078.13;4975477;28;20030;-50
2021/05/30 02:22:05;;;;;;;8.10;4.05;;;;;;;11.25;73.75;96067.00;4973804;28;20035;-51
2021/05/30 02:24:30;;;;;;;4.43;3.67;;;;;;;11.23;74.09;96077.66;4973927;28;20040;-50
2021/05/30 02:26:56;;;;;;;3.55;3.25;;;;;;;11.18;73.87;96069.34;4973473;28;20514;-50
2021/05/30 02:29:33;;;;;;;3.80;3.50;;;;;;;11.14;74.44;96071.41;4975264;28;20098;-50
2021/05/30 02:31:58;;;;;;;3.88;3.42;;;;;;;11.07;74.15;96070.31;4972467;28;20455;-50
2021/05/30 02:34:24;;;;;;;6.00;3.42;;;;;;;11.08;74.01;96069.34;4974052;28;20014;-51
2021/05/30 02:36:49;;;;;;;5.13;3.35;;;;;;;11.09;73.26;96059.63;4972952;28;20037;-50
2021/05/30 02:39:15;;;;;;;3.53;3.30;;;;;;;10.96;73.81;96065.16;4970040;28;20031;-49
2021/05/30 02:41:41;;;;;;;4.97;3.60;;;;;;;10.92;74.29;96066.38;4973772;28;20053;-51
2021/05/30 02:44:07;;;;;;;3.55;3.33;;;;;;;10.88;74.70;96056.13;4976527;28;20023;-51
2021/05/30 02:46:32;;;;;;;7.75;3.85;;;;;;;10.85;74.90;96059.03;4971551;28;20031;-51
2021/05/30 02:48:58;;;;;;;3.55;3.30;;;;;;;10.85;74.75;96058.19;4970431;28;20594;-51
2021/05/30 02:51:23;;;;;;;3.83;3.25;;;;;;;10.87;74.55;96059.72;4966539;28;20030;-51
2021/05/30 02:53:49;;;;;;;6.38;3.78;;;;;;;10.87;74.96;96064.97;4974203;28;20015;-49
2021/05/30 02:56:14;;;;;;;4.60;3.90;;;;;;;10.87;75.04;96061.53;4973913;28;20022;-47
2021/05/30 02:58:40;;;;;;;3.75;3.45;;;;;;;10.79;76.26;96056.94;4967073;28;20488;-49
2021/05/30 03:01:05;;;;;;;4.32;4.03;;;;;;;10.75;75.92;96056.34;4975177;28;20372;-49
2021/05/30 03:03:31;;;;;;;4.07;3.63;;;;;;;10.72;75.73;96051.38;4973302;28;20126;-50
2021/05/30 03:05:57;;;;;;;5.22;3.92;;;;;;;10.68;76.12;96046.50;4970559;28;20129;-47
2021/05/30 03:08:22;;;;;;;4.50;3.72;;;;;;;10.65;75.75;96049.38;4972289;28;20503;-50
2021/05/30 03:10:48;;;;;;;4.97;3.67;;;;;;;10.60;75.96;96047.16;4973701;28;20085;-50
2021/05/30 03:13:13;;;;;;;4.45;4.10;;;;;;;10.56;75.75;96051.03;4974364;28;20019;-49
2021/05/30 03:15:39;;;;;;;4.45;3.30;;;;;;;10.55;76.09;96050.19;4970327;28;20045;-49
2021/05/30 03:18:06;;;;;;;4.25;3.80;;;;;;;10.48;76.08;96049.03;4972557;28;20051;-48
2021/05/30 03:20:32;;;;;;;4.20;3.90;;;;;;;10.50;75.96;96039.25;4966764;28;20925;-50
2021/05/30 03:22:58;;;;;;;9.82;3.85;;;;;;;10.48;76.24;96041.16;4968575;28;20090;-49
2021/05/30 03:25:23;;;;;;;3.92;3.63;;;;;;;10.47;75.98;96031.59;4971957;28;20023;-48
2021/05/30 03:27:49;;;;;;;3.83;3.63;;;;;;;10.43;76.09;96032.81;4969459;28;20038;-50
2021/05/30 03:31:05;;;;;;;4.18;3.75;;;;;;;10.38;76.43;96033.19;4974572;28;20050;-48
2021/05/30 03:33:30;;;;;;;3.95;3.47;;;;;;;10.38;76.14;96038.44;4976712;28;20490;-53
2021/05/30 03:36:01;;;;;;;3.65;3.33;;;;;;;10.32;76.20;96031.09;4979309;28;20053;-49
2021/05/30 03:38:29;;;;;;;3.70;3.40;;;;;;;10.28;76.07;96037.59;4976913;28;20027;-49
2021/05/30 03:41:31;;;;;;;4.00;3.60;;;;;;;10.25;76.33;96036.03;4979112;28;20033;-49
2021/05/30 03:43:46;;;;;;;5.22;3.17;;;;;;;10.21;76.56;96042.53;4972832;28;20071;-52
2021/05/30 03:46:12;;;;;;;3.72;3.40;;;;;;;10.20;76.99;96048.75;4974483;28;20573;-50
2021/05/30 03:48:37;;;;;;;3.90;3.60;;;;;;;10.21;76.55;96053.06;4976441;28;20486;-50
2021/05/30 03:51:03;;;;;;;4.00;3.70;;;;;;;10.22;76.87;96054.72;4974626;28;20022;-53
2021/05/30 03:53:28;;;;;;;4.10;3.78;;;;;;;10.19;76.48;96057.63;4975793;28;20031;-52
2021/05/30 03:55:54;;;;;;;6.35;3.63;;;;;;;10.21;76.35;96060.13;4977201;28;20026;-51
2021/05/30 03:58:20;;;;;;;4.10;3.80;;;;;;;10.17;76.66;96070.94;4974126;28;20034;-49
2021/05/30 04:00:46;;;;;;;4.18;3.90;;;;;;;10.13;76.76;96060.78;4972904;28;20045;-49
2021/05/30 04:03:12;;;;;;;3.83;3.45;;;;;;;10.16;76.59;96066.59;4974106;28;20114;-53
2021/05/30 04:05:37;;;;;;;3.80;3.50;;;;;;;10.18;76.94;96069.09;4975079;28;20442;-50
2021/05/30 04:08:03;;;;;;;4.10;3.80;;;;;;;10.12;77.02;96074.91;4976722;28;20038;-50
2021/05/30 04:10:29;;;;;;;4.35;3.90;;;;;;;10.11;76.86;96065.34;4975970;28;20023;-50
2021/05/30 04:12:54;;;;;;;4.10;3.80;;;;;;;10.11;77.06;96070.59;4976206;28;20023;-50
2021/05/30 04:15:20;;;;;;;4.75;4.30;;;;;;;10.08;77.74;96070.88;4975345;28;20457;-49
2021/05/30 04:17:46;;;;;;;4.50;3.80;;;;;;;10.06;77.52;96078.03;4976989;28;20047;-51
2021/05/30 04:20:15;;;;;;;3.97;3.63;;;;;;;10.14;76.95;96084.31;4976401;28;20027;-50
2021/05/30 04:22:41;;;;;;;4.38;3.95;;;;;;;10.14;77.40;96089.56;4976417;28;20062;-50
2021/05/30 04:25:08;;;;;;;4.70;4.32;;;;;;;10.09;77.89;96085.69;4977153;28;20038;-50
2021/05/30 04:27:36;;;;;;;4.57;3.80;;;;;;;10.03;77.86;96094.91;4974081;28;20035;-52
2021/05/30 04:30:04;;;;;;;4.75;4.30;;;;;;;10.03;77.88;96092.28;4975818;28;20034;-50
2021/05/30 04:32:30;;;;;;;5.25;4.75;;;;;;;10.10;77.45;96096.06;4970893;28;20093;-50
2021/05/30 04:34:55;;;;;;;7.88;4.00;;;;;;;10.11;77.71;96099.53;4972121;28;20110;-50
2021/05/30 04:37:21;;;;;;;4.68;4.28;;;;;;;10.09;77.84;96109.38;4974336;28;20030;-49
2021/05/30 04:39:46;;;;;;;4.97;3.97;;;;;;;10.09;77.71;96118.06;4976408;28;20038;-49
2021/05/30 04:42:12;;;;;;;4.53;4.20;;;;;;;10.14;78.24;96115.06;4977284;28;20109;-51
2021/05/30 04:44:37;;;;;;;6.80;4.45;;;;;;;10.16;77.79;96119.22;4975963;28;20034;-49
2021/05/30 04:47:03;;;;;;;5.90;4.18;;;;;;;10.18;77.71;96122.59;4971599;28;20077;-51
2021/05/30 04:49:29;;;;;;;7.72;3.92;;;;;;;10.19;77.87;96118.13;4974031;28;20078;-49
2021/05/30 04:51:54;;;;;;;4.43;4.18;;;;;;;10.18;77.82;96116.47;4970419;28;20027;-50
2021/05/30 04:54:20;;;;;;;4.38;4.00;;;;;;;10.14;77.83;96109.81;4974773;28;20023;-49
2021/05/30 04:56:45;;;;;;;4.07;3.55;;;;;;;10.23;77.10;96105.56;4974872;28;20034;-51
2021/05/30 04:59:11;;;;;;;3.80;3.60;;;;;;;10.39;75.93;96107.72;4974222;28;20077;-50
2021/05/30 05:01:36;;;;;;;4.50;3.55;;;;;;;10.34;76.24;96107.28;4974693;28;20035;-52
2021/05/30 05:04:02;;;;;;;4.15;3.95;;;;;;;10.27;76.96;96109.59;4973281;28;20056;-49
2021/05/30 05:06:28;;;;;;;7.07;3.95;;;;;;;10.22;77.17;96107.34;4970428;28;20608;-50
2021/05/30 05:08:54;;;;;;;5.70;4.03;;;;;;;10.34;77.15;96115.19;4975919;28;20073;-51
2021/05/30 05:11:20;;;;;;;4.97;3.70;;;;;;;10.50;77.11;96114.75;4974525;28;20050;-49
2021/05/30 05:13:46;;;;;;;4.13;3.80;;;;;;;10.68;76.40;96114.94;4976519;28;20022;-49
2021/05/30 05:16:12;;;;;;;5.38;3.97;;;;;;;10.82;75.78;96104.06;4977062;28;20022;-51
2021/05/30 05:18:39;;;;;;;4.32;4.03;;;;;;;10.97;75.93;96104.53;4973360;28;20062;-50
2021/05/30 05:21:06;;;;;;;4.20;3.80;;;;;;;11.14;75.08;96107.50;4974895;28;20037;-50
2021/05/30 05:23:32;;;;;;;3.75;3.50;;;;;;;11.26;74.40;96106.38;4975685;28;20035;-50
2021/05/30 05:26:03;;;;;;;3.75;3.53;;;;;;;11.38;74.78;96109.72;4971564;28;20031;-50
2021/05/30 05:28:29;;;;;;;4.18;3.65;;;;;;;11.50;74.16;96110.47;4973796;28;20195;-49
2021/05/30 05:30:55;;;;;;;3.67;3.47;;;;;;;11.61;73.72;96115.59;4974117;28;20042;-49
2021/05/30 05:33:22;;;;;;;4.57;3.60;;;;;;;11.71;73.25;96106.84;4975195;28;20027;-49
2021/05/30 05:35:48;;;;;;;3.67;3.47;;;;;;;11.77;73.65;96118.66;4971640;28;20101;-50
2021/05/30 05:38:15;;;;;;;3.60;3.40;;;;;;;11.80;73.57;96116.56;4972664;28;20457;-49
2021/05/30 05:40:41;;;;;;;4.13;3.83;;;;;;;12.00;73.28;96121.84;4975492;28;20034;-48
2021/05/30 05:43:07;;;;;;;4.18;3.83;;;;;;;12.12;72.20;96122.56;4970472;28;20420;-49
2021/05/30 05:45:34;;;;;;;5.85;3.65;;;;;;;12.30;71.03;96120.88;4974849;28;20038;-49
2021/05/30 05:48:00;;;;;;;3.80;3.58;;;;;;;12.43;70.69;96119.72;4974737;28;20058;-51
2021/05/30 05:50:27;;;;;;;5.07;3.47;;;;;;;12.57;70.22;96121.91;4975505;28;20450;-53
2021/05/30 05:52:53;;;;;;;3.63;3.40;;;;;;;12.76;69.39;96120.19;4971167;28;20101;-49
2021/05/30 05:55:20;;;;;;;5.43;3.40;;;;;;;12.92;68.27;96123.97;4973379;28;20030;-51
2021/05/30 05:57:49;;;;;;;4.13;3.38;;;;;;;13.02;68.04;96124.78;4970578;28;20031;-52
2021/05/30 06:00:18;;;;;;;3.90;3.40;;;;;;;13.21;67.18;96115.91;4975223;28;20057;-50
2021/05/30 06:02:49;;;;;;;3.60;3.30;;;;;;;13.37;66.83;96117.91;4973464;28;20031;-50
2021/05/30 06:05:17;;;;;;;4.93;3.15;;;;;;;13.60;65.57;96117.53;4970841;28;21116;-50
2021/05/30 06:07:43;;;;;;;3.30;3.00;;;;;;;13.89;64.86;96116.47;4967630;28;20030;-50
2021/05/30 06:10:09;;;;;;;4.90;3.00;;;;;;;14.51;64.13;96123.53;4974394;28;20073;-50
2021/05/30 06:12:35;;;;;;;3.22;3.05;;;;;;;15.10;61.93;96124.69;4972126;28;20030;-51
2021/05/30 06:15:00;;;;;;;4.90;2.67;;;;;;;15.42;58.69;96123.97;4970759;28;20027;-52
2021/05/30 06:17:26;;;;;;;3.45;2.90;;;;;;;15.95;57.16;96115.78;4975052;28;20034;-53
2021/05/30 06:19:52;;;;;;;3.15;2.95;;;;;;;16.09;54.64;96113.47;4972478;28;20051;-52
2021/05/30 06:22:18;;;;;;;5.53;3.00;;;;;;;16.36;55.14;96125.59;4971640;28;20139;-53
2021/05/30 06:24:44;;;;;;;2.70;2.60;;;;;;;16.98;53.24;96123.28;4975105;28;20466;-51
2021/05/30 06:27:09;;;;;;;2.83;2.63;;;;;;;17.56;51.84;96115.88;4975499;28;20114;-51
2021/05/30 06:29:35;;;;;;;2.92;2.65;;;;;;;17.98;49.67;96119.09;4971732;28;20061;-52
2021/05/30 06:32:01;;;;;;;2.92;2.50;;;;;;;18.38;47.82;96107.47;4974657;28;20045;-55
2021/05/30 06:34:26;;;;;;;3.70;2.40;;;;;;;18.55;47.69;96108.16;4975051;28;20094;-54
2021/05/30 06:36:53;;;;;;;4.10;2.65;;;;;;;18.73;47.37;96105.97;4966504;28;20483;-53
2021/05/30 06:39:19;;;;;;;5.25;2.47;;;;;;;19.07;46.85;96109.13;4969342;28;20180;-51
2021/05/30 06:41:44;;;;;;;2.45;2.30;;;;;;;19.81;44.82;96101.94;4971812;28;20035;-51
2021/05/30 06:44:10;;;;;;;3.47;2.40;;;;;;;20.08;43.41;96104.09;4970576;28;20033;-53
2021/05/30 06:46:36;;;;;;;2.67;2.40;;;;;;;20.22;43.97;96108.50;4967967;28;20027;-51
2021/05/30 06:49:03;;;;;;;2.70;2.40;;;;;;;20.47;41.74;96111.59;4974127;28;20018;-55
2021/05/30 06:51:31;;;;;;;3.13;2.42;;;;;;;20.52;39.50;96110.19;4970401;28;20086;-53
2021/05/30 06:53:58;;;;;;;4.38;2.45;;;;;;;20.84;41.32;96106.09;4969937;28;20057;-54
2021/05/30 06:56:24;;;;;;;4.43;2.30;;;;;;;20.73;40.55;96109.31;4974334;28;20026;-54
2021/05/30 06:58:50;;;;;;;2.22;2.10;;;;;;;20.70;40.28;96107.03;4975426;28;20033;-55
2021/05/30 07:01:18;;;;;;;2.60;2.40;;;;;;;21.15;39.39;96112.03;4968034;28;20038;-53
2021/05/30 07:03:44;;;;;;;2.38;2.17;;;;;;;21.14;41.17;96103.19;4967477;28;20500;-55
2021/05/30 07:06:10;;;;;;;4.32;2.40;;;;;;;22.06;37.24;96102.03;4972071;28;20069;-54
2021/05/30 07:08:36;;;;;;;2.15;2.05;;;;;;;22.08;37.23;96099.16;4969970;28;20034;-54
2021/05/30 07:11:01;;;;;;;2.40;2.20;;;;;;;22.30;36.02;96097.09;4969591;28;20031;-56
2021/05/30 07:13:27;;;;;;;2.28;2.10;;;;;;;21.49;38.12;96091.59;4976940;28;20026;-57
2021/05/30 07:15:53;;;;;;;4.85;2.10;;;;;;;21.26;38.04;96092.75;4978254;28;20118;-55
2021/05/30 07:18:20;;;;;;;6.78;2.42;;;;;;;21.90;37.55;96089.84;4974228;28;20644;-56
2021/05/30 07:20:47;;;;;;;2.92;2.10;;;;;;;22.48;37.32;96091.16;4976266;28;20042;-54
2021/05/30 07:23:13;;;;;;;2.67;1.98;;;;;;;22.31;36.33;96080.81;4979514;28;20027;-53
2021/05/30 07:25:39;;;;;;;4.15;2.00;;;;;;;23.04;33.75;96081.75;4977660;28;20084;-54
2021/05/30 07:28:05;;;;;;;2.33;2.10;;;;;;;23.67;33.26;96079.44;4975430;28;20026;-52
2021/05/30 07:30:32;;;;;;;2.30;2.05;;;;;;;22.83;35.48;96074.78;4976746;28;20491;-55
2021/05/30 07:32:58;;;;;;;2.60;1.77;;;;;;;22.80;34.30;96071.72;4974644;28;20025;-56
2021/05/30 07:35:23;;;;;;;3.20;2.33;;;;;;;23.47;32.64;96071.50;4976729;28;20106;-54
2021/05/30 07:37:50;;;;;;;2.63;2.00;;;;;;;23.18;33.97;96069.09;4971119;28;20022;-55
2021/05/30 07:40:16;;;;;;;3.78;1.92;;;;;;;22.66;34.51;96062.84;4968711;28;20036;-54
2021/05/30 07:42:42;;;;;;;5.50;1.95;;;;;;;22.78;33.46;96055.81;4971504;28;20022;-55
2021/05/30 07:45:08;;;;;;;3.35;2.10;;;;;;;22.50;34.02;96059.56;4969017;28;20034;-55
2021/05/30 07:47:34;;;;;;;1.95;1.83;;;;;;;22.53;34.53;96061.84;4969933;28;20019;-56
2021/05/30 07:50:00;;;;;;;2.63;1.98;;;;;;;22.39;35.53;96054.78;4969773;28;20573;-56
2021/05/30 07:52:25;;;;;;;2.45;1.85;;;;;;;22.83;35.98;96052.50;4968746;28;20113;-56
2021/05/30 07:54:51;;;;;;;2.30;2.13;;;;;;;23.07;34.13;96047.47;4964716;28;20621;-55
2021/05/30 07:57:16;;;;;;;1.92;1.83;;;;;;;22.89;33.77;96047.13;4971850;28;20058;-55
2021/05/30 07:59:42;;;;;;;1.92;1.83;;;;;;;22.87;33.96;96042.97;4975166;28;20023;-58
2021/05/30 08:02:08;;;;;;;7.38;1.88;;;;;;;23.06;32.67;96045.81;4970040;28;20023;-54
2021/05/30 08:04:33;;;;;;;2.28;1.80;;;;;;;23.00;33.45;96036.72;4967646;28;20031;-56
2021/05/30 08:07:00;;;;;;;1.95;1.63;;;;;;;24.45;31.61;96041.66;4966684;28;20163;-54
2021/05/30 08:09:26;;;;;;;2.38;1.98;;;;;;;23.67;31.63;96033.75;4973779;28;20027;-54
2021/05/30 08:11:53;;;;;;;2.35;1.80;;;;;;;24.18;32.97;96037.31;4973955;28;20034;-54
2021/05/30 08:14:19;;;;;;;3.00;1.98;;;;;;;24.70;30.57;96027.31;4975074;28;20105;-58
2021/05/30 08:16:45;;;;;;;2.72;2.03;;;;;;;24.99;29.59;96038.41;4973704;28;20077;-55
2021/05/30 08:19:12;;;;;;;1.80;1.70;;;;;;;23.84;33.44;96033.22;4974673;28;20047;-57
2021/05/30 08:21:38;;;;;;;2.00;1.90;;;;;;;24.60;32.08;96030.53;4967575;28;20129;-56
2021/05/30 08:24:05;;;;;;;4.15;2.08;;;;;;;24.35;32.70;96023.31;4971357;28;20118;-55
2021/05/30 08:26:30;;;;;;;5.88;2.05;;;;;;;23.84;33.89;96022.47;4973339;28;20030;-57
2021/05/30 08:28:56;;;;;;;2.45;1.70;;;;;;;23.93;32.78;96009.59;4973993;28;20030;-57
2021/05/30 08:31:21;;;;;;;3.30;1.90;;;;;;;24.46;32.52;96016.38;4973991;28;20027;-58
2021/05/30 08:33:47;;;;;;;2.20;2.10;;;;;;;24.87;30.46;96020.34;4975160;28;20462;-58
2021/05/30 08:36:13;;;;;;;2.72;1.77;;;;;;;25.09;30.43;96013.66;4958909;28;20486;-56
2021/05/30 08:38:38;;;;;;;2.00;1.90;;;;;;;25.24;31.59;96007.84;4970857;28;20037;-56
2021/05/30 08:41:05;;;;;;;5.05;2.25;;;;;;;25.62;30.62;96014.84;4969475;28;20030;-58
2021/05/30 08:43:30;;;;;;;2.78;1.88;;;;;;;24.82;31.34;96020.16;4967052;28;20042;-59
2021/05/30 08:45:56;;;;;;;2.28;2.13;;;;;;;24.74;31.48;96023.13;4976345;28;20018;-59
2021/05/30 08:48:22;;;;;;;4.00;2.10;;;;;;;25.38;30.39;96020.13;4976403;28;20483;-57
2021/05/30 08:51:06;;;;;;;2.10;1.83;;;;;;;24.98;31.02;96017.91;4969810;28;20035;-53
2021/05/30 08:53:35;;;;;;;1.52;1.52;;;;;;;25.64;30.08;96012.72;4967542;28;20479;-55
2021/05/30 08:56:01;;;;;;;2.55;2.35;;;;;;;25.10;29.72;96023.38;4972644;28;20027;-56
2021/05/30 08:58:48;;;;;;;4.38;1.98;;;;;;;24.52;30.89;96020.03;4974138;28;21121;-57
2021/05/30 09:01:16;;;;;;;3.05;2.05;;;;;;;24.27;32.55;96010.97;4968563;28;20050;-55
2021/05/30 09:04:07;;;;;;;6.63;1.90;;;;;;;24.09;32.17;96008.25;4970750;28;20027;-53
2021/05/30 09:06:41;;;;;;;2.05;1.77;;;;;;;24.71;30.69;96002.06;4972808;28;20045;-56
2021/05/30 09:09:09;;;;;;;1.98;1.88;;;;;;;25.55;29.71;96000.66;4971874;28;20030;-54
2021/05/30 09:11:40;;;;;;;1.77;1.67;;;;;;;25.68;30.30;96002.31;4973510;28;20110;-53
2021/05/30 09:14:12;;;;;;;3.22;2.10;;;;;;;25.87;29.00;96005.75;4974530;28;20482;-58
2021/05/30 09:17:01;;;;;;;2.38;2.17;;;;;;;25.55;29.86;95998.75;4970044;28;20038;-56
2021/05/30 09:19:49;;;;;;;4.22;1.90;;;;;;;25.70;28.39;96005.59;4968525;28;20046;-54
2021/05/30 09:22:36;;;;;;;4.25;2.00;;;;;;;25.64;28.71;95993.03;4970771;28;20034;-56
2021/05/30 09:25:19;;;;;;;1.90;1.80;;;;;;;24.83;30.85;95999.47;4968367;28;20065;-55
2021/05/30 09:27:48;;;;;;;2.33;1.70;;;;;;;24.83;31.28;95996.78;4971643;28;20042;-53
2021/05/30 09:30:39;;;;;;;4.65;2.78;;;;;;;25.53;29.69;95989.25;4975232;28;20054;-54
2021/05/30 09:33:14;;;;;;;2.08;1.90;;;;;;;25.71;30.02;95989.19;4973143;28;20419;-54
2021/05/30 09:35:39;;;;;;;2.50;2.30;;;;;;;25.99;30.84;95985.03;4957078;28;20088;-57
2021/05/30 09:38:08;;;;;;;6.40;2.90;;;;;;;25.56;30.49;95981.53;4972246;28;20039;-54
2021/05/30 09:40:35;;;;;;;4.80;2.75;;;;;;;25.37;30.87;95985.31;4970144;28;20035;-55
2021/05/30 09:43:05;;;;;;;2.08;1.88;;;;;;;25.54;29.20;95980.94;4973435;28;20038;-55
2021/05/30 09:45:31;;;;;;;11.18;2.13;;;;;;;25.56;29.67;95976.13;4967403;28;20109;-54
2021/05/30 09:47:56;;;;;;;2.00;1.90;;;;;;;25.79;31.21;95974.53;4969204;28;20030;-52
2021/05/30 09:50:22;;;;;;;5.38;2.33;;;;;;;26.46;28.57;95967.22;4973928;28;20081;-47
2021/05/30 09:52:52;;;;;;;1.80;1.70;;;;;;;26.24;27.90;95959.72;4972195;28;20027;-51
2021/05/30 09:55:22;;;;;;;4.72;1.95;;;;;;;25.54;29.07;95977.44;4969816;28;20490;-55
2021/05/30 09:58:18;;;;;;;1.80;1.70;;;;;;;25.30;30.81;95972.75;4967791;28;20040;-55
2021/05/30 10:01:00;;;;;;;2.10;1.98;;;;;;;25.20;28.94;95969.81;4971518;28;20054;-50
2021/05/30 10:03:26;;;;;;;2.17;1.95;;;;;;;24.21;32.36;95974.22;4973998;28;20034;-52
2021/05/30 10:05:52;;;;;;;3.15;1.85;;;;;;;24.21;32.12;95960.75;4972937;28;20113;-51
2021/05/30 10:08:19;;;;;;;2.00;1.90;;;;;;;24.50;31.21;95966.47;4971778;28;20113;-52
2021/05/30 10:10:45;;;;;;;2.55;2.03;;;;;;;23.98;31.51;95967.53;4970215;28;20038;-56
2021/05/30 10:13:11;;;;;;;2.78;1.77;;;;;;;24.20;31.85;95969.03;4972602;28;20099;-54
2021/05/30 10:15:38;;;;;;;2.92;2.00;;;;;;;24.25;31.72;95966.50;4975353;28;20059;-54
2021/05/30 10:18:27;;;;;;;4.15;1.92;;;;;;;24.25;31.37;95975.41;4974373;28;20078;-54
2021/05/30 10:20:55;;;;;;;2.20;2.00;;;;;;;23.22;33.54;95967.47;4973340;28;20030;-55
2021/05/30 10:23:22;;;;;;;3.72;1.98;;;;;;;23.86;32.85;95980.06;4973249;28;20467;-51
2021/05/30 10:25:48;;;;;;;6.85;2.13;;;;;;;23.06;34.57;95976.81;4971508;28;20030;-51
2021/05/30 10:28:21;;;;;;;3.47;2.40;;;;;;;23.85;31.89;95976.53;4951769;28;20043;-52
2021/05/30 10:30:49;;;;;;;3.60;2.13;;;;;;;22.87;33.92;95978.56;4952333;28;20594;-54
2021/05/30 10:33:23;;;;;;;2.65;2.45;;;;;;;22.84;35.54;95974.44;4969167;28;20026;-52
2021/05/30 10:35:50;;;;;;;3.60;3.30;;;;;;;23.28;34.48;95982.72;4974581;28;20035;-53
2021/05/30 10:38:38;;;;;;;2.35;1.92;;;;;;;22.96;35.48;95971.09;4973123;28;20046;-51
2021/05/30 10:41:24;;;;;;;2.05;1.95;;;;;;;23.18;34.48;95975.09;4973534;28;20110;-53
2021/05/30 10:43:50;;;;;;;2.25;2.10;;;;;;;23.30;34.34;95977.97;4974198;28;20035;-55
2021/05/30 10:46:23;;;;;;;2.35;2.25;;;;;;;23.49;35.64;95975.38;4976832;28;20050;-56
2021/05/30 10:49:09;;;;;;;2.60;2.40;;;;;;;24.12;34.15;95970.16;4975836;28;20450;-55
2021/05/30 10:51:50;;;;;;;7.40;4.65;;;;;;;24.65;32.74;95970.63;4977624;28;20052;-52
2021/05/30 10:54:15;;;;;;;3.25;3.05;;;;;;;25.30;32.10;95966.53;4974877;28;20439;-52
2021/05/30 10:57:01;;;;;;;3.08;2.88;;;;;;;25.91;32.51;95974.56;4975729;28;20050;-55
2021/05/30 10:59:27;;;;;;;4.60;2.55;;;;;;;25.90;31.56;95970.22;4973950;28;20093;-54
2021/05/30 11:01:55;;;;;;;3.95;2.42;;;;;;;25.67;32.25;95971.81;4978092;28;20026;-53
2021/05/30 11:04:28;;;;;;;4.75;2.60;;;;;;;25.55;32.36;95968.31;4978657;28;20061;-51
2021/05/30 11:07:03;;;;;;;3.22;2.97;;;;;;;26.13;31.76;95964.03;4976969;28;20034;-53
2021/05/30 11:09:55;;;;;;;3.38;3.17;;;;;;;27.03;30.96;95960.28;4972426;28;20045;-54
2021/05/30 11:12:28;;;;;;;3.30;3.00;;;;;;;27.01;30.33;95957.00;4977332;28;20042;-54
2021/05/30 11:15:18;;;;;;;5.13;2.63;;;;;;;27.12;29.43;95964.28;4969940;28;20066;-56
2021/05/30 11:17:52;;;;;;;2.67;2.28;;;;;;;27.49;27.71;95970.31;4974687;28;20105;-56
2021/05/30 11:20:45;;;;;;;3.35;2.40;;;;;;;27.74;28.35;95961.88;4973142;28;20031;-54
2021/05/30 11:23:18;;;;;;;4.72;3.60;;;;;;;28.25;27.01;95969.16;4971291;28;20034;-54
2021/05/30 11:25:56;;;;;;;3.25;2.80;;;;;;;29.29;26.20;95965.88;4975611;28;20106;-55
2021/05/30 11:28:24;;;;;;;3.33;3.03;;;;;;;28.99;27.20;95967.19;4976676;28;20066;-55
2021/05/30 11:30:56;;;;;;;2.90;2.70;;;;;;;28.42;27.30;95969.97;4976166;28;20093;-56
2021/05/30 11:33:21;;;;;;;2.05;1.92;;;;;;;28.39;25.51;95961.50;4974888;28;20019;-55
2021/05/30 11:35:51;;;;;;;4.00;2.90;;;;;;;27.97;29.88;95962.78;4971019;28;20026;-55
2021/05/30 11:38:17;;;;;;;3.25;2.10;;;;;;;28.84;27.59;95965.91;4974888;28;20441;-55
2021/05/30 11:40:43;;;;;;;4.20;3.80;;;;;;;28.54;26.27;95966.34;4976278;28;20038;-55